createdAt,value
2023-02-23T00:01:04.855Z,20
2023-02-23T00:16:04.887Z,17
2023-02-23T00:31:05.104Z,17
2023-02-23T00:46:05.631Z,16
2023-02-23T01:01:04.531Z,14
2023-02-23T01:16:05.527Z,12
2023-02-23T01:31:05.508Z,12
2023-02-23T01:46:05.420Z,11
2023-02-23T02:01:05.495Z,10
2023-02-23T02:16:05.155Z,11
2023-02-23T02:31:05.275Z,10
2023-02-23T02:46:05.655Z,11
2023-02-23T03:01:04.448Z,12
2023-02-23T03:16:05.451Z,12
2023-02-23T03:31:04.696Z,13
2023-02-23T03:46:04.794Z,14
2023-02-23T04:01:04.414Z,15
2023-02-23T04:16:05.437Z,16
2023-02-23T04:31:05.515Z,16
2023-02-23T04:46:04.777Z,17
2023-02-23T05:01:05.123Z,20
2023-02-23T05:16:05.053Z,24
2023-02-23T05:31:05.096Z,20
2023-02-23T05:46:04.679Z,21
2023-02-23T06:01:04.819Z,20
2023-02-23T06:16:05.423Z,23
2023-02-23T06:31:04.365Z,25
2023-02-23T06:46:05.314Z,21
2023-02-23T07:01:04.632Z,23
2023-02-23T07:16:05.288Z,25
2023-02-23T07:31:05.388Z,28
2023-02-23T07:46:05.317Z,44
2023-02-23T08:01:04.937Z,28
2023-02-23T08:16:05.114Z,30
2023-02-23T08:31:05.094Z,28
2023-02-23T08:46:04.886Z,26
2023-02-23T09:01:04.991Z,27
2023-02-23T09:16:05.207Z,27
2023-02-23T09:31:05.371Z,27
2023-02-23T09:46:04.576Z,21
2023-02-23T10:01:05.084Z,20
2023-02-23T10:16:05.355Z,22
2023-02-23T10:31:04.788Z,20
2023-02-23T10:46:05.237Z,18
2023-02-23T11:01:04.843Z,19
2023-02-23T11:16:04.633Z,17
2023-02-23T11:31:05.440Z,17
2023-02-23T11:46:05.374Z,16
2023-02-23T12:01:05.337Z,15
2023-02-23T12:16:05.262Z,16
2023-02-23T12:31:05.220Z,17
2023-02-23T12:46:06.718Z,14
2023-02-23T13:01:05.616Z,14
2023-02-23T13:16:05.362Z,14
2023-02-23T13:31:06.015Z,13
2023-02-23T13:46:05.147Z,12
2023-02-23T14:01:05.294Z,13
2023-02-23T14:16:05.428Z,13
2023-02-23T14:31:05.416Z,12
2023-02-23T14:46:05.658Z,14
2023-02-23T15:01:05.485Z,14
2023-02-23T15:16:05.498Z,13
2023-02-23T15:31:04.998Z,14
2023-02-23T15:46:05.449Z,14
2023-02-23T16:01:04.853Z,14
2023-02-23T16:16:05.298Z,15
2023-02-23T16:31:05.439Z,14
2023-02-23T16:46:05.216Z,15
2023-02-23T17:01:05.282Z,16
2023-02-23T17:16:05.375Z,19
2023-02-23T17:31:04.755Z,20
2023-02-23T17:46:04.752Z,23
2023-02-23T18:01:05.037Z,25
2023-02-23T18:16:05.462Z,25
2023-02-23T18:31:05.433Z,27
2023-02-23T18:46:05.458Z,30
2023-02-23T19:01:04.503Z,33
2023-02-23T19:16:04.797Z,39
2023-02-23T19:31:05.473Z,42
2023-02-23T19:46:04.673Z,46
2023-02-23T20:01:04.873Z,40
2023-02-23T20:16:05.164Z,37
2023-02-23T20:31:05.019Z,37
2023-02-23T20:46:05.284Z,41
2023-02-23T21:01:04.777Z,39
2023-02-23T21:16:04.902Z,42
2023-02-23T21:31:05.304Z,41
2023-02-23T21:46:05.302Z,35
2023-02-23T22:01:04.952Z,33
2023-02-23T22:16:05.111Z,30
2023-02-23T22:31:05.633Z,20
2023-02-23T22:46:05.334Z,19
2023-02-23T23:01:05.234Z,17
2023-02-23T23:16:07.987Z,17
2023-02-23T23:31:05.162Z,17
2023-02-23T23:46:05.038Z,17
